Atlantic Beach, North Carolina
Current Conditions -  °F | °C
As of 7:58 AM on Saturday 22 Nov 2014 (Local Time) from KMRH Reporting Station
Clear Clear  
Wind Chill: 36°   Ceiling: Unl
Heat Index: 39°   Visibility: 10mi
Dew Point: 29°   Wind: 5mph
Humidity: 67%   Direction: 30°NNE
Pressure: 30.57"   Gusts: NA
Location:  34.7°N, 76.74°W
Report Text: KMRH 221258Z AUTO 03004KT 10SM CLR 04/M02 A3057 RMK AO2 SLP353 T00391017 TSNO
Loading
Personal Weather Stations






























Interactive Weather Map New forecast layout! Learn more

10-Day Weather Forecast

Advertisements
Track Severe Weather on mobile